Time;durP1;ratioP1;P1;durP2;ratioP2;P2;SDS_P1;SDS_P2;PMS_P1;PMS_P2;Temp;Humidity;BMP_temperature;BMP_pressure;BME280_temperature;BME280_humidity;BME280_pressure;Samples;Min_cycle;Max_cycle;Signal;HPM_P1;HPM_P2
2023/07/18 00:02:19;;;;;;;;;;;;;;;29.25;36.18;100830.38;5076266;28;1034;-16
2023/07/18 00:04:45;;;;;;;;;;;;;;;29.18;36.64;100831.16;5075794;28;1058;-16
2023/07/18 00:07:10;;;;;;;;;;;;;;;29.09;36.79;100835.88;5070114;28;1983;-16
2023/07/18 00:09:37;;;;;;;;;;;;;;;29.06;36.87;100838.16;5068124;28;1086;-16
2023/07/18 00:12:03;;;;;;;;;;;;;;;29.07;36.92;100837.09;5075916;28;1284;-16
2023/07/18 00:14:29;;;;;;;;;;;;;;;29.02;36.89;100834.13;5063286;28;1214;-16
2023/07/18 00:16:55;;;;;;;;;;;;;;;29.01;36.87;100829.75;5075245;28;1047;-16
2023/07/18 00:19:21;;;;;;;;;;;;;;;29.03;36.99;100827.72;5075688;28;2179;-16
2023/07/18 00:21:47;;;;;;;;;;;;;;;29.14;37.08;100818.19;5075258;28;1105;-16
2023/07/18 00:24:13;;;;;;;;;;;;;;;29.14;36.78;100808.22;5076108;28;1022;-16
2023/07/18 00:26:39;;;;;;;;;;;;;;;29.06;36.89;100809.16;5075705;28;1964;-16
2023/07/18 00:29:05;;;;;;;;;;;;;;;29.07;36.95;100813.56;5075746;28;1109;-16
2023/07/18 00:31:32;;;;;;;;;;;;;;;29.23;36.57;100803.47;5044613;28;1340;-16
2023/07/18 00:33:57;;;;;;;;;;;;;;;29.26;36.72;100797.66;5063272;28;1146;-16
2023/07/18 00:36:23;;;;;;;;;;;;;;;29.13;36.96;100792.16;5051358;28;1559;-16
2023/07/18 00:38:49;;;;;;;;;;;;;;;29.11;37.20;100792.34;5072113;28;1096;-16
2023/07/18 00:41:14;;;;;;;;;;;;;;;29.08;36.67;100781.88;5074179;28;1102;-16
2023/07/18 00:43:40;;;;;;;;;;;;;;;29.12;36.73;100779.63;5054154;28;1202;-16
2023/07/18 00:46:05;;;;;;;;;;;;;;;29.18;36.57;100786.97;5074646;28;1914;-16
2023/07/18 00:48:34;;;;;;;;;;;;;;;29.20;36.78;100788.47;5078081;28;1911;-16
2023/07/18 00:50:59;;;;;;;;;;;;;;;29.14;36.51;100786.53;5061657;28;1004;-16
2023/07/18 00:53:25;;;;;;;;;;;;;;;29.27;36.19;100785.81;5049119;28;1107;-16
2023/07/18 00:55:50;;;;;;;;;;;;;;;29.21;36.66;100787.41;5072645;28;1114;-16
2023/07/18 00:58:16;;;;;;;;;;;;;;;29.14;36.69;100791.97;5053612;28;1557;-16
2023/07/18 01:00:41;;;;;;;;;;;;;;;29.17;36.47;100796.13;5078621;28;1023;-16
2023/07/18 01:03:09;;;;;;;;;;;;;;;29.16;36.70;100797.19;5048995;28;1181;-16
2023/07/18 01:05:34;;;;;;;;;;;;;;;29.25;36.50;100787.88;5078493;28;1124;-16
2023/07/18 01:08:03;;;;;;;;;;;;;;;29.15;36.70;100782.78;5078584;28;1918;-16
2023/07/18 01:10:28;;;;;;;;;;;;;;;29.20;36.70;100779.50;5078196;28;1075;-16
2023/07/18 01:12:55;;;;;;;;;;;;;;;29.25;36.21;100781.59;5048203;28;1240;-16
2023/07/18 01:15:22;;;;;;;;;;;;;;;29.17;36.36;100780.72;5048039;28;1407;-16
2023/07/18 01:17:48;;;;;;;;;;;;;;;29.20;36.18;100774.06;5078655;28;2086;-16
2023/07/18 01:20:16;;;;;;;;;;;;;;;29.27;36.21;100766.00;5060822;28;1022;-16
2023/07/18 01:22:43;;;;;;;;;;;;;;;29.16;36.57;100756.56;5065543;28;1174;-16
2023/07/18 01:25:12;;;;;;;;;;;;;;;29.19;36.35;100757.00;5071382;28;1115;-16
2023/07/18 01:27:38;;;;;;;;;;;;;;;29.19;35.85;100757.00;5054239;28;1910;-16
2023/07/18 01:30:05;;;;;;;;;;;;;;;29.31;36.24;100751.03;5048870;28;1157;-16
2023/07/18 01:32:31;;;;;;;;;;;;;;;29.17;36.21;100759.06;5078663;28;1021;-17
2023/07/18 01:34:59;;;;;;;;;;;;;;;29.14;36.08;100762.16;5078488;28;879;-16
2023/07/18 01:37:24;;;;;;;;;;;;;;;29.16;36.40;100748.44;5077666;28;1154;-16
2023/07/18 01:39:50;;;;;;;;;;;;;;;29.07;36.45;100755.84;5071296;28;1131;-16
2023/07/18 01:42:16;;;;;;;;;;;;;;;29.01;36.63;100757.47;5054550;28;1954;-16
2023/07/18 01:44:43;;;;;;;;;;;;;;;29.07;36.16;100759.41;5060566;28;1313;-16
2023/07/18 01:47:08;;;;;;;;;;;;;;;29.11;36.42;100765.28;5064418;28;1976;-16
2023/07/18 01:49:35;;;;;;;;;;;;;;;29.20;35.97;100761.38;5077281;28;2081;-16
2023/07/18 01:52:00;;;;;;;;;;;;;;;29.18;36.39;100754.47;5065265;28;1210;-16
2023/07/18 01:54:27;;;;;;;;;;;;;;;29.20;36.33;100745.13;5078628;28;1170;-16
2023/07/18 01:56:52;;;;;;;;;;;;;;;29.27;36.02;100747.03;5064983;28;1150;-16
2023/07/18 01:59:18;;;;;;;;;;;;;;;29.20;35.73;100753.25;5053083;28;1099;-16
2023/07/18 02:01:45;;;;;;;;;;;;;;;29.25;36.04;100744.53;5076883;28;1054;-15
2023/07/18 02:04:10;;;;;;;;;;;;;;;29.10;35.98;100741.91;5048131;28;1163;-16
2023/07/18 02:06:35;;;;;;;;;;;;;;;29.12;36.52;100752.53;5076845;28;1977;-16
2023/07/18 02:09:01;;;;;;;;;;;;;;;29.08;36.45;100749.38;5066210;28;1107;-16
2023/07/18 02:11:27;;;;;;;;;;;;;;;29.24;36.21;100748.28;5076259;28;842;-16
2023/07/18 02:13:52;;;;;;;;;;;;;;;29.21;35.85;100751.38;5048537;28;1396;-16
2023/07/18 02:16:18;;;;;;;;;;;;;;;29.10;36.41;100750.03;5064719;28;1131;-16
2023/07/18 02:18:43;;;;;;;;;;;;;;;29.15;36.35;100741.31;5077623;28;2083;-16
2023/07/18 02:21:09;;;;;;;;;;;;;;;29.20;36.47;100747.84;5076375;28;1129;-16
2023/07/18 02:23:35;;;;;;;;;;;;;;;29.25;36.23;100749.94;5048351;28;1297;-15
2023/07/18 02:26:01;;;;;;;;;;;;;;;29.22;36.09;100750.34;5076258;28;1093;-15
2023/07/18 02:28:26;;;;;;;;;;;;;;;29.24;35.51;100748.28;5047764;28;1965;-16
2023/07/18 02:30:55;;;;;;;;;;;;;;;29.26;36.02;100745.38;5075992;28;1098;-15
2023/07/18 02:33:20;;;;;;;;;;;;;;;29.19;36.34;100746.16;5066248;28;1167;-16
2023/07/18 02:35:52;;;;;;;;;;;;;;;29.16;36.79;100743.00;5076964;28;893;-16
2023/07/18 02:38:17;;;;;;;;;;;;;;;29.27;36.59;100739.75;5065561;28;1037;-16
2023/07/18 02:40:43;;;;;;;;;;;;;;;29.18;36.40;100738.22;5077467;28;1050;-16
2023/07/18 02:43:08;;;;;;;;;;;;;;;29.24;36.24;100732.03;5077438;28;1031;-16
2023/07/18 02:45:34;;;;;;;;;;;;;;;29.14;36.43;100742.38;5058910;28;1006;-16
2023/07/18 02:47:59;;;;;;;;;;;;;;;29.20;36.69;100737.00;5074083;28;1971;-16
2023/07/18 02:50:26;;;;;;;;;;;;;;;29.30;35.66;100725.81;5043093;28;1297;-16
2023/07/18 02:52:51;;;;;;;;;;;;;;;29.27;36.06;100719.94;5057127;28;1198;-15
2023/07/18 02:55:17;;;;;;;;;;;;;;;29.18;36.05;100709.25;5057026;28;1233;-15
2023/07/18 02:57:42;;;;;;;;;;;;;;;29.24;35.95;100710.34;5056623;28;1289;-15
2023/07/18 03:00:19;;;;;;;;;;;;;;;29.30;35.58;100708.69;5056400;28;1123;-15
2023/07/18 03:02:45;;;;;;;;;;;;;;;29.13;36.31;100719.84;5056664;28;1186;-15
2023/07/18 03:05:11;;;;;;;;;;;;;;;28.46;40.92;100715.50;5063227;28;1344;-15
2023/07/18 03:07:37;;;;;;;;;;;;;;;27.98;42.50;100708.75;5070005;28;1973;-15
2023/07/18 03:10:03;;;;;;;;;;;;;;;27.80;43.63;100713.72;5076395;28;1085;-15
2023/07/18 03:12:29;;;;;;;;;;;;;;;27.83;44.03;100714.19;5068462;28;1100;-15
2023/07/18 03:14:54;;;;;;;;;;;;;;;27.81;44.96;100716.22;5058268;28;991;-15
2023/07/18 03:17:20;;;;;;;;;;;;;;;27.83;45.27;100710.63;5076576;28;1994;-16
2023/07/18 03:19:46;;;;;;;;;;;;;;;27.86;44.65;100712.97;5071839;28;965;-15
2023/07/18 03:22:13;;;;;;;;;;;;;;;27.86;44.29;100708.38;5066829;28;1017;-15
2023/07/18 03:24:38;;;;;;;;;;;;;;;27.87;43.82;100707.38;5056069;28;1087;-15
2023/07/18 03:27:04;;;;;;;;;;;;;;;27.81;45.00;100701.91;5075988;28;1981;-15
2023/07/18 03:29:30;;;;;;;;;;;;;;;27.90;45.21;100705.31;5076606;28;1131;-15
2023/07/18 03:31:55;;;;;;;;;;;;;;;27.84;44.84;100701.50;5067841;28;1027;-15
2023/07/18 03:34:21;;;;;;;;;;;;;;;27.89;44.20;100706.34;5073791;28;1016;-15
2023/07/18 03:36:47;;;;;;;;;;;;;;;28.00;44.91;100695.03;5074116;28;1022;-15
2023/07/18 03:39:16;;;;;;;;;;;;;;;28.03;44.93;100699.25;5059985;28;1210;-15
2023/07/18 03:41:42;;;;;;;;;;;;;;;28.00;45.55;100697.75;5056200;28;1277;-15
2023/07/18 03:44:08;;;;;;;;;;;;;;;28.09;45.09;100688.47;5038612;28;1372;-15
2023/07/18 03:46:34;;;;;;;;;;;;;;;28.14;44.73;100703.31;5057177;28;1981;-15
2023/07/18 03:48:59;;;;;;;;;;;;;;;27.99;42.16;100717.69;5076343;28;2116;-15
2023/07/18 03:51:24;;;;;;;;;;;;;;;28.11;43.58;100716.16;5075842;28;1107;-15
2023/07/18 03:53:50;;;;;;;;;;;;;;;28.01;43.54;100717.50;5071828;28;1038;-15
2023/07/18 03:56:16;;;;;;;;;;;;;;;28.46;43.83;100720.13;5066626;28;1151;-15
2023/07/18 03:58:42;;;;;;;;;;;;;;;28.51;43.16;100719.53;5062658;28;1091;-15
2023/07/18 04:01:08;;;;;;;;;;;;;;;28.34;42.64;100717.06;5075450;28;1086;-15
2023/07/18 04:03:34;;;;;;;;;;;;;;;28.23;43.84;100713.81;5075512;28;1016;-15
2023/07/18 04:05:59;;;;;;;;;;;;;;;28.39;42.76;100713.78;5076092;28;1182;-15
2023/07/18 04:08:25;;;;;;;;;;;;;;;28.34;44.25;100708.97;5075824;28;1910;-15
2023/07/18 04:10:50;;;;;;;;;;;;;;;28.26;43.08;100704.44;5075543;28;1122;-15
2023/07/18 04:13:16;;;;;;;;;;;;;;;28.47;43.18;100695.56;5075335;28;1165;-14
2023/07/18 04:15:41;;;;;;;;;;;;;;;28.71;42.25;100690.75;5075905;28;1007;-15
2023/07/18 04:18:07;;;;;;;;;;;;;;;28.72;42.75;100697.03;5075824;28;2326;-15
2023/07/18 04:20:32;;;;;;;;;;;;;;;28.58;41.30;100702.31;5076331;28;1224;-14
2023/07/18 04:22:58;;;;;;;;;;;;;;;28.64;41.99;100702.56;5075027;28;1205;-15
2023/07/18 04:25:23;;;;;;;;;;;;;;;28.63;41.99;100700.91;5075689;28;1186;-15
2023/07/18 04:27:49;;;;;;;;;;;;;;;28.75;42.54;100695.78;5075918;28;1910;-15
2023/07/18 04:30:14;;;;;;;;;;;;;;;28.74;41.63;100692.25;5075685;28;1062;-15
2023/07/18 04:32:43;;;;;;;;;;;;;;;28.72;41.47;100697.88;5075129;28;1169;-15
2023/07/18 04:35:09;;;;;;;;;;;;;;;28.76;42.70;100697.47;5075609;28;1086;-15
2023/07/18 04:37:34;;;;;;;;;;;;;;;28.81;42.79;100697.72;5074980;28;1161;-15
2023/07/18 04:40:00;;;;;;;;;;;;;;;28.86;43.77;100711.50;5075710;28;1094;-15
2023/07/18 04:42:25;;;;;;;;;;;;;;;28.92;41.93;100704.47;5075522;28;1036;-15
2023/07/18 04:44:51;;;;;;;;;;;;;;;28.96;41.40;100705.75;5068568;28;1031;-15
2023/07/18 04:47:16;;;;;;;;;;;;;;;29.00;42.03;100714.31;5056376;28;1914;-15
2023/07/18 04:49:42;;;;;;;;;;;;;;;29.00;42.99;100715.19;5064305;28;1116;-15
2023/07/18 04:52:07;;;;;;;;;;;;;;;29.01;41.12;100716.03;5060372;28;1122;-16
2023/07/18 04:54:33;;;;;;;;;;;;;;;29.09;40.48;100711.28;5075415;28;1067;-16
2023/07/18 04:56:59;;;;;;;;;;;;;;;29.15;39.15;100712.38;5075493;28;1012;-16
2023/07/18 04:59:24;;;;;;;;;;;;;;;29.06;38.90;100714.38;5075010;28;1027;-16
2023/07/18 05:01:53;;;;;;;;;;;;;;;29.14;38.87;100707.16;5065668;28;1123;-15
2023/07/18 05:04:19;;;;;;;;;;;;;;;29.13;38.48;100713.63;5055089;28;1230;-16
2023/07/18 05:06:45;;;;;;;;;;;;;;;29.13;38.30;100722.56;5054444;28;1918;-15
2023/07/18 05:09:10;;;;;;;;;;;;;;;29.24;38.41;100713.06;5054936;28;1266;-16
2023/07/18 05:11:36;;;;;;;;;;;;;;;29.22;37.18;100715.13;5054875;28;1223;-16
2023/07/18 05:14:01;;;;;;;;;;;;;;;29.23;37.44;100716.78;5055136;28;1242;-16
2023/07/18 05:16:27;;;;;;;;;;;;;;;29.09;39.37;100718.59;5054987;28;1226;-16
2023/07/18 05:18:52;;;;;;;;;;;;;;;29.20;37.90;100719.91;5069084;28;2494;-16
2023/07/18 05:21:18;;;;;;;;;;;;;;;29.03;38.15;100722.91;5074811;28;1090;-15
2023/07/18 05:23:44;;;;;;;;;;;;;;;29.04;38.35;100726.47;5077351;28;1123;-16
2023/07/18 05:26:10;;;;;;;;;;;;;;;29.20;38.31;100730.72;5078920;28;1147;-15
2023/07/18 05:28:35;;;;;;;;;;;;;;;29.17;38.40;100725.72;5058160;28;1964;-16
2023/07/18 05:31:08;;;;;;;;;;;;;;;29.03;38.75;100728.31;5058197;28;1047;-16
2023/07/18 05:33:33;;;;;;;;;;;;;;;29.15;38.28;100730.47;5064772;28;1155;-16
2023/07/18 05:35:59;;;;;;;;;;;;;;;29.14;38.52;100726.97;5071263;28;1088;-15
2023/07/18 05:38:25;;;;;;;;;;;;;;;28.48;35.55;100718.88;5078185;28;1063;-15
2023/07/18 05:40:50;;;;;;;;;;;;;;;28.59;35.37;100724.81;5059495;28;1135;-15
2023/07/18 05:43:18;;;;;;;;;;;;;;;28.93;35.17;100731.34;5071121;28;1004;-16
2023/07/18 05:45:43;;;;;;;;;;;;;;;28.80;37.06;100733.94;5077897;28;1155;-16
2023/07/18 05:48:09;;;;;;;;;;;;;;;28.30;35.21;100729.25;5076688;28;1974;-15
2023/07/18 05:50:35;;;;;;;;;;;;;;;28.65;35.39;100724.03;5063308;28;1154;-15
2023/07/18 05:53:01;;;;;;;;;;;;;;;29.01;36.18;100732.28;5058067;28;1281;-15
2023/07/18 05:55:27;;;;;;;;;;;;;;;29.06;36.23;100730.63;5063846;28;1084;-15
2023/07/18 05:57:53;;;;;;;;;;;;;;;28.95;36.42;100736.56;5077523;28;1155;-16
2023/07/18 06:00:18;;;;;;;;;;;;;;;28.76;34.21;100729.94;5077419;28;1186;-15
2023/07/18 06:02:44;;;;;;;;;;;;;;;29.00;34.17;100727.88;5077436;28;1051;-15
2023/07/18 06:05:10;;;;;;;;;;;;;;;29.02;35.48;100731.22;5077223;28;1095;-14
2023/07/18 06:07:36;;;;;;;;;;;;;;;29.02;36.30;100718.53;5077354;28;1975;-15
2023/07/18 06:10:01;;;;;;;;;;;;;;;28.83;35.59;100714.59;5077580;28;1071;-14
2023/07/18 06:12:27;;;;;;;;;;;;;;;27.66;34.46;100724.31;5076785;28;939;-14
2023/07/18 06:14:54;;;;;;;;;;;;;;;27.46;33.69;100710.56;5076872;28;1020;-14
2023/07/18 06:17:20;;;;;;;;;;;;;;;27.28;33.68;100714.44;5075695;28;2361;-15
2023/07/18 06:19:46;;;;;;;;;;;;;;;28.07;33.58;100708.63;5075557;28;1061;-14
2023/07/18 06:22:12;;;;;;;;;;;;;;;28.34;34.26;100714.38;5066179;28;1055;-14
2023/07/18 06:24:37;;;;;;;;;;;;;;;28.29;33.61;100720.34;5072342;28;1123;-14
2023/07/18 06:27:03;;;;;;;;;;;;;;;28.05;32.65;100711.53;5077072;28;1906;-14
2023/07/18 06:29:28;;;;;;;;;;;;;;;27.71;32.44;100708.41;5076831;28;1113;-14
2023/07/18 06:31:56;;;;;;;;;;;;;;;27.32;32.45;100706.81;5077250;28;1026;-14
2023/07/18 06:34:22;;;;;;;;;;;;;;;27.45;32.69;100706.16;5076183;28;1036;-14
2023/07/18 06:36:47;;;;;;;;;;;;;;;27.43;32.64;100703.66;5083453;28;1140;-15
2023/07/18 06:39:13;;;;;;;;;;;;;;;27.50;32.69;100701.88;5075999;28;1000;-14
2023/07/18 06:41:39;;;;;;;;;;;;;;;27.98;32.66;100705.19;5077102;28;1008;-14
2023/07/18 06:44:09;;;;;;;;;;;;;;;28.56;32.82;100703.56;5064786;28;1074;-14
2023/07/18 06:46:34;;;;;;;;;;;;;;;28.84;32.46;100706.25;5070202;28;1968;-14
2023/07/18 06:49:00;;;;;;;;;;;;;;;28.85;33.00;100696.28;5065843;28;2534;-15
2023/07/18 06:51:25;;;;;;;;;;;;;;;28.80;33.32;100691.47;5071787;28;1007;-14
2023/07/18 06:53:52;;;;;;;;;;;;;;;28.66;33.27;100700.50;5076667;28;1079;-14
2023/07/18 06:56:17;;;;;;;;;;;;;;;28.64;33.62;100698.00;5075934;28;987;-14
2023/07/18 06:58:43;;;;;;;;;;;;;;;28.75;33.38;100695.78;5076175;28;1150;-15
2023/07/18 07:01:10;;;;;;;;;;;;;;;28.83;34.04;100695.63;5075563;28;1011;-14
2023/07/18 07:03:36;;;;;;;;;;;;;;;28.69;34.71;100687.44;5080102;28;936;-14
2023/07/18 07:06:01;;;;;;;;;;;;;;;28.88;33.51;100690.47;5081023;28;985;-14
2023/07/18 07:08:28;;;;;;;;;;;;;;;28.85;33.84;100689.00;5075568;28;1910;-15
2023/07/18 07:11:02;;;;;;;;;;;;;;;27.87;33.49;100679.50;5087459;28;1069;-14
2023/07/18 07:13:27;;;;;;;;;;;;;;;27.91;33.26;100688.06;5075863;28;895;-15
2023/07/18 07:15:53;;;;;;;;;;;;;;;28.40;33.37;100681.13;5070118;28;1125;-14
2023/07/18 07:18:18;;;;;;;;;;;;;;;28.59;34.21;100684.22;5065489;28;2354;-15
2023/07/18 07:20:44;;;;;;;;;;;;;;;28.60;34.50;100683.16;5075452;28;1175;-14
2023/07/18 07:23:09;;;;;;;;;;;;;;;28.84;33.90;100686.50;5075029;28;1044;-14
2023/07/18 07:25:35;;;;;;;;;;;;;;;28.83;34.08;100684.81;5075663;28;828;-15
2023/07/18 07:28:00;;;;;;;;;;;;;;;28.96;34.36;100692.22;5075608;28;1914;-14
2023/07/18 07:30:26;;;;;;;;;;;;;;;29.09;33.87;100684.19;5075505;28;1043;-15
2023/07/18 07:32:52;;;;;;;;;;;;;;;28.80;33.17;100679.78;5074781;28;1311;-14
2023/07/18 07:35:18;;;;;;;;;;;;;;;28.69;34.32;100686.59;5074792;28;1093;-14
2023/07/18 07:37:44;;;;;;;;;;;;;;;28.75;34.90;100688.50;5074672;28;1204;-14
2023/07/18 07:40:11;;;;;;;;;;;;;;;28.63;34.25;100696.31;5075208;28;1111;-15
2023/07/18 07:42:39;;;;;;;;;;;;;;;28.84;34.23;100700.03;5075472;28;1218;-14
2023/07/18 07:45:05;;;;;;;;;;;;;;;28.75;34.68;100701.19;5075537;28;1060;-14
2023/07/18 07:47:31;;;;;;;;;;;;;;;28.95;34.92;100704.91;5072081;28;2417;-14
2023/07/18 07:49:56;;;;;;;;;;;;;;;29.13;34.56;100698.19;5060699;28;1009;-14
2023/07/18 07:52:22;;;;;;;;;;;;;;;29.17;34.77;100694.06;5055350;28;1214;-14
2023/07/18 07:54:48;;;;;;;;;;;;;;;28.84;34.93;100698.16;5067555;28;1098;-15
2023/07/18 07:57:14;;;;;;;;;;;;;;;27.99;34.04;100686.06;5062130;28;1038;-14
2023/07/18 07:59:40;;;;;;;;;;;;;;;28.07;33.66;100685.16;5083285;28;1042;-14
2023/07/18 08:02:05;;;;;;;;;;;;;;;27.09;34.68;100686.94;5072818;28;1080;-14
2023/07/18 08:04:31;;;;;;;;;;;;;;;28.36;33.08;100682.56;5055551;28;1099;-14
2023/07/18 08:06:56;;;;;;;;;;;;;;;28.56;33.78;100688.13;5072398;28;1910;-14
2023/07/18 08:09:22;;;;;;;;;;;;;;;28.75;34.13;100682.25;5081756;28;1109;-14
2023/07/18 08:11:48;;;;;;;;;;;;;;;28.86;34.02;100692.56;5071829;28;1120;-15
2023/07/18 08:14:13;;;;;;;;;;;;;;;29.00;34.12;100688.09;5037736;28;1255;-14
2023/07/18 08:16:39;;;;;;;;;;;;;;;28.96;34.08;100687.63;5055963;28;1250;-14
2023/07/18 08:19:05;;;;;;;;;;;;;;;28.98;34.47;100676.63;5071639;28;2534;-15
2023/07/18 08:21:30;;;;;;;;;;;;;;;28.87;34.71;100677.97;5075610;28;1019;-14
2023/07/18 08:23:56;;;;;;;;;;;;;;;28.93;35.07;100684.47;5075852;28;1166;-15
2023/07/18 08:26:21;;;;;;;;;;;;;;;28.95;34.81;100679.69;5075316;28;1913;-14
2023/07/18 08:28:47;;;;;;;;;;;;;;;28.31;33.67;100677.66;5075877;28;1015;-14
2023/07/18 08:31:12;;;;;;;;;;;;;;;28.71;33.83;100685.34;5075698;28;1062;-14
2023/07/18 08:33:38;;;;;;;;;;;;;;;28.84;33.21;100695.44;5075781;28;1201;-14
2023/07/18 08:36:03;;;;;;;;;;;;;;;28.48;32.92;100680.16;5073893;28;1082;-14
2023/07/18 08:38:29;;;;;;;;;;;;;;;28.79;32.96;100694.38;5055374;28;1249;-14
2023/07/18 08:40:58;;;;;;;;;;;;;;;28.72;34.11;100686.19;5037423;28;1239;-15
2023/07/18 08:43:24;;;;;;;;;;;;;;;28.28;34.42;100590.69;5055822;28;1306;-14
2023/07/18 08:45:49;;;;;;;;;;;;;;;28.89;34.44;100699.44;5055783;28;1250;-14
2023/07/18 08:48:15;;;;;;;;;;;;;;;28.98;34.58;100698.28;5038443;28;2519;-14
2023/07/18 08:50:43;;;;;;;;;;;;;;;28.80;32.51;100696.88;5058053;28;1108;-15
2023/07/18 08:53:08;;;;;;;;;;;;;;;28.76;32.12;100692.06;5075071;28;1070;-14
2023/07/18 08:55:34;;;;;;;;;;;;;;;28.72;32.36;100689.75;5075749;28;998;-14
2023/07/18 08:58:00;;;;;;;;;;;;;;;28.77;32.00;100696.44;5076111;28;1184;-14
2023/07/18 09:00:25;;;;;;;;;;;;;;;28.69;31.90;100692.00;5079607;28;1010;-14
2023/07/18 09:02:51;;;;;;;;;;;;;;;28.69;31.88;100697.41;5078557;28;1193;-14
2023/07/18 09:05:35;;;;;;;;;;;;;;;28.73;32.41;100695.97;5079400;28;1110;-15
2023/07/18 09:08:01;;;;;;;;;;;;;;;28.84;33.60;100694.63;5079601;28;1901;-14
2023/07/18 09:10:27;;;;;;;;;;;;;;;28.84;33.95;100700.03;5078696;28;1579;-14
2023/07/18 09:12:53;;;;;;;;;;;;;;;28.83;34.42;100703.75;5078690;28;1046;-14
2023/07/18 09:15:21;;;;;;;;;;;;;;;29.06;33.99;100689.19;5078488;28;1087;-15
2023/07/18 09:17:48;;;;;;;;;;;;;;;29.02;34.04;100693.31;5072478;28;1808;-14
2023/07/18 09:20:16;;;;;;;;;;;;;;;29.04;34.30;100689.38;5069542;28;1202;-15
2023/07/18 09:22:41;;;;;;;;;;;;;;;28.89;33.77;100684.03;5077149;28;1044;-15
2023/07/18 09:25:07;;;;;;;;;;;;;;;28.85;34.88;100685.44;5077495;28;1249;-14
2023/07/18 09:27:35;;;;;;;;;;;;;;;28.87;35.42;100677.13;5057603;28;1910;-14
2023/07/18 09:30:00;;;;;;;;;;;;;;;28.91;35.00;100679.25;5057536;28;1359;-14
2023/07/18 09:32:26;;;;;;;;;;;;;;;28.98;35.46;100673.09;5057796;28;1230;-14
2023/07/18 09:34:52;;;;;;;;;;;;;;;28.67;35.64;100672.41;5076102;28;1218;-15
2023/07/18 09:37:18;;;;;;;;;;;;;;;28.47;32.78;100673.91;5081439;28;1018;-15
2023/07/18 09:39:43;;;;;;;;;;;;;;;28.47;32.34;100668.50;5064989;28;1068;-15
2023/07/18 09:42:09;;;;;;;;;;;;;;;28.43;32.17;100671.78;5058059;28;1292;-14
2023/07/18 09:44:34;;;;;;;;;;;;;;;28.32;32.27;100665.00;5064291;28;1351;-14
2023/07/18 09:47:00;;;;;;;;;;;;;;;28.29;31.93;100660.81;5077342;28;1914;-14
2023/07/18 09:49:26;;;;;;;;;;;;;;;28.27;32.17;100665.56;5077053;28;2591;-14
2023/07/18 09:52:01;;;;;;;;;;;;;;;28.12;32.26;100657.53;5058745;28;1026;-14
2023/07/18 09:54:26;;;;;;;;;;;;;;;27.81;33.16;100658.66;5077393;28;1082;-14
2023/07/18 09:56:52;;;;;;;;;;;;;;;27.34;34.04;100651.56;5060011;28;1055;-14
2023/07/18 09:59:18;;;;;;;;;;;;;;;27.33;33.80;100651.75;5059239;28;1007;-14
2023/07/18 10:01:45;;;;;;;;;;;;;;;27.95;33.30;100648.81;5055336;28;1040;-14
2023/07/18 10:04:10;;;;;;;;;;;;;;;27.95;32.85;100648.81;5077285;28;1127;-14
2023/07/18 10:06:36;;;;;;;;;;;;;;;28.23;32.98;100650.75;5076762;28;1918;-14
2023/07/18 10:09:01;;;;;;;;;;;;;;;28.44;32.68;100646.41;5058506;28;1134;-14
2023/07/18 10:11:27;;;;;;;;;;;;;;;28.01;32.71;100652.63;5058872;28;940;-14
2023/07/18 10:13:52;;;;;;;;;;;;;;;27.71;33.58;100646.25;5059735;28;1198;-14
2023/07/18 10:16:18;;;;;;;;;;;;;;;27.66;33.63;100647.84;5065938;28;1270;-14
2023/07/18 10:18:47;;;;;;;;;;;;;;;28.31;33.01;100650.63;5073649;28;2648;-15
2023/07/18 10:21:14;;;;;;;;;;;;;;;28.17;32.89;100646.97;5083514;28;1054;-14
2023/07/18 10:23:41;;;;;;;;;;;;;;;28.66;32.50;100647.19;5059827;28;1222;-15
2023/07/18 10:26:06;;;;;;;;;;;;;;;28.75;33.30;100647.06;5073927;28;1215;-15
2023/07/18 10:28:45;;;;;;;;;;;;;;;28.75;33.69;100637.06;5077018;28;1975;-14
2023/07/18 10:31:27;;;;;;;;;;;;;;;28.74;34.16;100646.25;5077428;28;1137;-15
2023/07/18 10:34:09;;;;;;;;;;;;;;;28.68;34.21;100655.13;5076815;28;1286;-14
2023/07/18 10:36:38;;;;;;;;;;;;;;;28.80;34.85;100648.16;5064624;28;1376;-14
2023/07/18 10:39:11;;;;;;;;;;;;;;;28.79;34.43;100641.06;5070368;28;834;-14
2023/07/18 10:41:36;;;;;;;;;;;;;;;28.85;34.79;100639.44;5076091;28;986;-14
2023/07/18 10:44:02;;;;;;;;;;;;;;;29.00;34.50;100635.78;5069640;28;1090;-14
2023/07/18 10:46:38;;;;;;;;;;;;;;;29.08;34.31;100630.22;5079341;28;1905;-15
2023/07/18 10:49:03;;;;;;;;;;;;;;;28.17;33.57;100632.59;5075470;28;1823;-14
2023/07/18 10:51:30;;;;;;;;;;;;;;;28.34;33.69;100634.03;5076253;28;914;-14
2023/07/18 10:53:55;;;;;;;;;;;;;;;28.73;33.59;100628.31;5073518;28;1139;-14
2023/07/18 10:56:24;;;;;;;;;;;;;;;28.68;34.30;100636.16;5057810;28;1174;-14
2023/07/18 10:58:51;;;;;;;;;;;;;;;29.05;34.23;100636.03;5075537;28;1082;-14
2023/07/18 11:01:17;;;;;;;;;;;;;;;28.67;32.83;100631.81;5075669;28;1097;-14
2023/07/18 11:03:45;;;;;;;;;;;;;;;28.72;33.71;100629.34;5075577;28;920;-14
2023/07/18 11:06:10;;;;;;;;;;;;;;;28.74;34.05;100624.59;5075723;28;1051;-15
2023/07/18 11:08:37;;;;;;;;;;;;;;;28.57;32.14;100624.88;5074406;28;1988;-14
2023/07/18 11:11:03;;;;;;;;;;;;;;;28.76;32.87;100630.63;5056668;28;1019;-14
2023/07/18 11:13:32;;;;;;;;;;;;;;;28.73;34.10;100622.88;5056386;28;1254;-14
2023/07/18 11:16:07;;;;;;;;;;;;;;;28.81;34.48;100633.56;5056032;28;1048;-15
2023/07/18 11:18:41;;;;;;;;;;;;;;;28.92;34.35;100632.19;5055826;28;2488;-15
2023/07/18 11:21:06;;;;;;;;;;;;;;;28.85;32.86;100621.31;5069168;28;1106;-15
2023/07/18 11:23:32;;;;;;;;;;;;;;;29.01;33.73;100622.06;5068478;28;1261;-14
2023/07/18 11:25:58;;;;;;;;;;;;;;;28.79;34.31;100622.13;5042442;28;1140;-14
2023/07/18 11:28:32;;;;;;;;;;;;;;;28.36;33.09;100613.03;5075359;28;1911;-15
2023/07/18 11:30:58;;;;;;;;;;;;;;;28.67;33.31;100610.16;5070749;28;1218;-15
2023/07/18 11:33:27;;;;;;;;;;;;;;;28.83;33.74;100614.41;5068692;28;1147;-15
2023/07/18 11:35:52;;;;;;;;;;;;;;;28.84;33.97;100605.28;5069749;28;1048;-14
2023/07/18 11:38:18;;;;;;;;;;;;;;;28.98;33.98;100602.69;5072081;28;1183;-15
2023/07/18 11:40:44;;;;;;;;;;;;;;;29.15;33.88;100603.19;5087364;28;1070;-14
2023/07/18 11:43:16;;;;;;;;;;;;;;;29.02;34.05;100598.53;5075665;28;1070;-14
2023/07/18 11:45:42;;;;;;;;;;;;;;;29.04;34.51;100602.72;5057554;28;1035;-14
2023/07/18 11:48:07;;;;;;;;;;;;;;;28.94;35.06;100603.06;5067170;28;1966;-14
2023/07/18 11:50:33;;;;;;;;;;;;;;;28.93;34.98;100595.94;5074458;28;1090;-14
2023/07/18 11:52:58;;;;;;;;;;;;;;;28.96;35.12;100594.75;5075523;28;1090;-14
2023/07/18 11:55:24;;;;;;;;;;;;;;;28.85;35.39;100596.97;5075179;28;1230;-14
2023/07/18 11:57:49;;;;;;;;;;;;;;;28.90;35.20;100598.22;5071327;28;811;-15
2023/07/18 12:00:15;;;;;;;;;;;;;;;28.94;35.33;100592.22;5073973;28;1195;-15
2023/07/18 12:02:41;;;;;;;;;;;;;;;29.04;35.21;100593.75;5068791;28;1059;-15
2023/07/18 12:05:07;;;;;;;;;;;;;;;28.83;35.25;100582.78;5074350;28;1249;-14
2023/07/18 12:07:33;;;;;;;;;;;;;;;28.91;34.67;100580.97;5077422;28;1960;-14
2023/07/18 12:09:59;;;;;;;;;;;;;;;28.87;35.34;100580.50;5070455;28;1078;-15
2023/07/18 12:12:24;;;;;;;;;;;;;;;29.08;34.86;100586.88;5072988;28;1038;-14
2023/07/18 12:14:50;;;;;;;;;;;;;;;28.91;33.52;100589.09;5075267;28;1127;-14
2023/07/18 12:17:16;;;;;;;;;;;;;;;28.96;33.77;100587.44;5074630;28;1868;-14
2023/07/18 12:19:42;;;;;;;;;;;;;;;29.03;34.45;100581.25;5055063;28;1290;-15
2023/07/18 12:22:08;;;;;;;;;;;;;;;28.94;34.22;100583.25;5055071;28;1285;-14
2023/07/18 12:24:33;;;;;;;;;;;;;;;28.41;33.51;100576.47;5065746;28;1093;-14
2023/07/18 12:26:59;;;;;;;;;;;;;;;27.92;33.99;100566.22;5074760;28;1910;-14
2023/07/18 12:29:25;;;;;;;;;;;;;;;27.48;34.95;100573.41;5073216;28;1066;-14
2023/07/18 12:31:51;;;;;;;;;;;;;;;28.29;33.85;100565.31;5065782;28;1304;-14
2023/07/18 12:34:17;;;;;;;;;;;;;;;28.55;34.08;100555.72;5058243;28;984;-15
2023/07/18 12:36:43;;;;;;;;;;;;;;;28.79;34.11;100551.75;5074579;28;1008;-14
2023/07/18 12:39:09;;;;;;;;;;;;;;;28.01;33.51;100553.41;5079080;28;1139;-14
2023/07/18 12:41:35;;;;;;;;;;;;;;;27.70;34.01;100557.25;5079633;28;966;-14
2023/07/18 12:44:00;;;;;;;;;;;;;;;27.69;33.86;100553.75;5059468;28;1335;-14